createdAt,value
2023-02-12T00:00:08.183Z,1.10
2023-02-12T00:02:41.309Z,1.10
2023-02-12T00:05:28.191Z,1.14
2023-02-12T00:08:08.177Z,1.16
2023-02-12T00:11:02.221Z,1.18
2023-02-12T00:13:49.176Z,1.15
2023-02-12T00:16:32.172Z,1.17
2023-02-12T00:19:26.188Z,1.19
2023-02-12T00:22:13.173Z,1.17
2023-02-12T00:24:46.289Z,1.17
2023-02-12T00:27:33.160Z,1.15
2023-02-12T00:30:06.317Z,1.16
2023-02-12T00:32:56.195Z,1.14
2023-02-12T00:35:29.282Z,1.17
2023-02-12T00:38:16.196Z,1.14
2023-02-12T00:40:56.190Z,1.18
2023-02-12T00:43:50.207Z,1.22
2023-02-12T00:46:44.285Z,1.26
2023-02-12T00:49:41.201Z,1.26
2023-02-12T00:52:35.178Z,1.28
2023-02-12T00:55:22.212Z,1.32
2023-02-12T00:57:55.306Z,1.33
2023-02-12T01:00:43.195Z,1.31
2023-02-12T01:03:17.357Z,1.32
2023-02-12T01:06:04.186Z,1.31
2023-02-12T01:08:37.310Z,1.33
2023-02-12T01:11:24.202Z,1.32
2023-02-12T01:13:57.283Z,1.32
2023-02-12T01:16:44.215Z,1.31
2023-02-12T01:19:18.307Z,1.33
2023-02-12T01:22:05.208Z,1.33
2023-02-12T01:24:38.302Z,1.33
2023-02-12T01:27:25.186Z,1.31
2023-02-12T01:29:58.371Z,1.31
2023-02-12T01:32:45.233Z,1.30
2023-02-12T01:35:18.327Z,1.35
2023-02-12T01:38:05.230Z,1.35
2023-02-12T01:40:38.352Z,1.34
2023-02-12T01:43:25.212Z,1.34
2023-02-12T01:45:59.308Z,1.34
2023-02-12T01:48:51.223Z,1.38
2023-02-12T01:51:28.304Z,1.39
2023-02-12T01:54:18.238Z,1.36
2023-02-12T01:56:59.206Z,1.37
2023-02-12T01:59:49.197Z,1.34
2023-02-12T02:02:30.236Z,1.33
2023-02-12T02:05:21.205Z,1.32
2023-02-12T02:08:01.236Z,1.31
2023-02-12T02:10:55.217Z,1.35
2023-02-12T02:14:01.239Z,1.35
2023-02-12T02:16:37.719Z,1.36
2023-02-12T02:19:34.215Z,1.40
2023-02-12T02:23:08.217Z,1.41
2023-02-12T02:26:07.211Z,1.42
2023-02-12T02:29:03.234Z,1.44
2023-02-12T02:31:54.379Z,1.46
2023-02-12T02:34:50.224Z,1.46
2023-02-12T02:37:44.236Z,1.49
2023-02-12T02:40:37.239Z,1.48
2023-02-12T02:43:37.228Z,1.49
2023-02-12T02:46:59.336Z,1.49
2023-02-12T02:49:52.230Z,1.46
2023-02-12T02:52:33.363Z,1.43
2023-02-12T02:55:25.264Z,1.44
2023-02-12T02:58:06.320Z,1.48
2023-02-12T03:01:02.323Z,1.48
2023-02-12T03:04:08.342Z,1.48
2023-02-12T03:07:17.254Z,1.46
2023-02-12T03:10:04.236Z,1.44
2023-02-12T03:12:53.237Z,1.42
2023-02-12T03:15:48.254Z,1.43
2023-02-12T03:18:39.253Z,1.43
2023-02-12T03:21:33.246Z,1.44
2023-02-12T03:24:27.243Z,1.43
2023-02-12T03:27:20.270Z,1.40
2023-02-12T03:29:54.335Z,1.36
2023-02-12T03:33:18.261Z,1.34
2023-02-12T03:36:13.240Z,1.36
2023-02-12T03:39:13.254Z,1.32
2023-02-12T03:42:25.261Z,1.33
2023-02-12T03:45:24.356Z,1.33
2023-02-12T03:48:25.257Z,1.35
2023-02-12T03:51:04.363Z,1.36
2023-02-12T03:53:51.266Z,1.35
2023-02-12T03:56:50.230Z,1.37
2023-02-12T03:59:44.262Z,1.35
2023-02-12T04:02:39.254Z,1.33
2023-02-12T04:05:39.278Z,1.30
2023-02-12T04:08:26.256Z,1.30
2023-02-12T04:11:22.361Z,1.29
2023-02-12T04:14:28.264Z,1.29
2023-02-12T04:17:15.275Z,1.29
2023-02-12T04:20:21.265Z,1.29
2023-02-12T04:23:07.336Z,1.29
2023-02-12T04:26:09.263Z,1.28
2023-02-12T04:29:27.266Z,1.29
2023-02-12T04:32:23.267Z,1.24
2023-02-12T04:35:14.280Z,1.23
2023-02-12T04:38:04.267Z,1.21
2023-02-12T04:40:51.272Z,1.17
2023-02-12T04:43:46.289Z,1.12
2023-02-12T04:46:40.272Z,1.13
2023-02-12T04:49:28.291Z,1.11
2023-02-12T04:52:01.434Z,1.10
2023-02-12T04:54:48.299Z,1.10
2023-02-12T04:57:21.384Z,1.11
2023-02-12T05:00:08.368Z,1.10
2023-02-12T05:02:41.357Z,1.10
2023-02-12T05:05:28.293Z,1.10
2023-02-12T05:08:01.401Z,1.08
2023-02-12T05:10:48.289Z,1.07
2023-02-12T05:13:21.377Z,1.04
2023-02-12T05:16:12.398Z,1.04
2023-02-12T05:18:45.387Z,1.04
2023-02-12T05:21:32.283Z,1.00
2023-02-12T05:24:05.398Z,1.00
2023-02-12T05:26:52.279Z,1.02
2023-02-12T05:29:25.412Z,1.01
2023-02-12T05:32:13.414Z,1.03
2023-02-12T05:34:46.390Z,1.04
2023-02-12T05:37:33.298Z,1.02
2023-02-12T05:40:12.393Z,1.06
2023-02-12T05:42:59.300Z,1.05
2023-02-12T05:45:39.291Z,1.03
2023-02-12T05:48:33.322Z,1.03
2023-02-12T05:51:33.301Z,1.06
2023-02-12T05:54:27.284Z,1.07
2023-02-12T05:57:14.320Z,1.06
2023-02-12T05:59:54.303Z,1.05
2023-02-12T06:02:49.292Z,1.06
2023-02-12T06:05:36.286Z,1.10
2023-02-12T06:08:16.293Z,1.07
2023-02-12T06:11:13.302Z,1.03
2023-02-12T06:14:07.334Z,1.04
2023-02-12T06:17:01.307Z,1.01
2023-02-12T06:19:34.392Z,1.00
2023-02-12T06:22:21.328Z,1.00
2023-02-12T06:25:01.299Z,0.99
2023-02-12T06:27:48.350Z,1.00
2023-02-12T06:30:22.940Z,0.98
2023-02-12T06:33:09.292Z,1.03
2023-02-12T06:35:50.321Z,1.00
2023-02-12T06:38:44.331Z,0.99
2023-02-12T06:41:31.313Z,1.02
2023-02-12T06:44:04.407Z,1.02
2023-02-12T06:46:51.402Z,1.03
2023-02-12T06:49:24.423Z,1.05
2023-02-12T06:52:11.306Z,1.06
2023-02-12T06:54:44.426Z,1.06
2023-02-12T06:57:31.340Z,1.07
2023-02-12T07:00:04.432Z,1.10
2023-02-12T07:02:51.362Z,1.08
2023-02-12T07:05:31.306Z,1.09
2023-02-12T07:08:25.335Z,1.03
2023-02-12T07:11:19.314Z,1.03
2023-02-12T07:14:06.340Z,1.11
2023-02-12T07:16:46.442Z,1.14
2023-02-12T07:19:33.330Z,1.18
2023-02-12T07:22:06.433Z,1.18
2023-02-12T07:24:53.315Z,1.18
2023-02-12T07:27:33.352Z,1.16
2023-02-12T07:30:20.336Z,1.18
2023-02-12T07:32:53.452Z,1.22
2023-02-12T07:35:40.330Z,1.27
2023-02-12T07:38:13.475Z,1.29
2023-02-12T07:41:00.334Z,1.27
2023-02-12T07:43:33.431Z,1.28
2023-02-12T07:46:36.360Z,1.34
2023-02-12T07:49:35.328Z,1.33
2023-02-12T07:52:29.355Z,1.37
2023-02-12T07:55:16.354Z,1.38
2023-02-12T07:57:49.482Z,1.37
2023-02-12T08:00:36.345Z,1.34
2023-02-12T08:03:16.343Z,1.34
2023-02-12T08:06:03.360Z,1.40
2023-02-12T08:08:38.848Z,1.47
2023-02-12T08:11:25.352Z,1.48
2023-02-12T08:14:06.368Z,1.52
2023-02-12T08:16:54.447Z,1.64
2023-02-12T08:19:35.365Z,1.68
2023-02-12T08:22:29.344Z,1.63
2023-02-12T08:25:19.359Z,1.53
2023-02-12T08:27:52.437Z,1.51
2023-02-12T08:30:39.452Z,1.52
2023-02-12T08:33:19.366Z,1.54
2023-02-12T08:36:35.374Z,1.71
2023-02-12T08:39:23.369Z,1.73
2023-02-12T08:42:04.361Z,1.74
2023-02-12T08:44:58.363Z,1.80
2023-02-12T08:47:52.368Z,1.85
2023-02-12T08:50:40.384Z,1.76
2023-02-12T08:53:20.370Z,1.78
2023-02-12T08:56:14.347Z,1.77
2023-02-12T08:59:01.355Z,1.77
2023-02-12T09:01:43.537Z,1.91
2023-02-12T09:04:32.370Z,2.05
2023-02-12T09:07:12.369Z,2.01
2023-02-12T09:10:06.380Z,2.01
2023-02-12T09:12:53.373Z,2.10
2023-02-12T09:15:26.473Z,2.07
2023-02-12T09:18:13.367Z,2.06
2023-02-12T09:20:49.452Z,2.11
2023-02-12T09:23:36.389Z,2.13
2023-02-12T09:26:15.466Z,2.10
2023-02-12T09:29:02.359Z,2.14
2023-02-12T09:31:37.607Z,2.41
2023-02-12T09:34:27.360Z,2.50
2023-02-12T09:37:07.379Z,2.40
2023-02-12T09:39:54.387Z,2.28
2023-02-12T09:42:38.384Z,2.22
2023-02-12T09:45:29.361Z,2.02
2023-02-12T09:48:20.470Z,1.99
2023-02-12T09:51:13.402Z,2.01
2023-02-12T09:53:57.379Z,1.82
2023-02-12T09:56:53.388Z,1.76
2023-02-12T09:59:45.380Z,1.76
2023-02-12T10:02:23.487Z,2.02
2023-02-12T10:05:12.382Z,2.04
2023-02-12T10:08:10.478Z,2.21
2023-02-12T10:11:00.394Z,2.10
2023-02-12T10:13:42.489Z,2.15
2023-02-12T10:16:44.396Z,1.98
2023-02-12T10:19:49.483Z,2.04
2023-02-12T10:22:57.086Z,2.07
2023-02-12T10:26:09.399Z,2.07
2023-02-12T10:29:04.407Z,2.17
2023-02-12T10:34:43.419Z,2.23
2023-02-12T10:37:54.389Z,2.41
2023-02-12T10:40:44.389Z,2.21
2023-02-12T10:43:19.509Z,2.05
2023-02-12T10:46:06.398Z,1.94
2023-02-12T10:48:45.718Z,2.02
2023-02-12T10:52:03.392Z,2.15
2023-02-12T10:54:52.409Z,2.36
2023-02-12T10:57:46.404Z,2.44
2023-02-12T11:00:42.413Z,2.45
2023-02-12T11:03:25.400Z,2.48
2023-02-12T11:06:26.402Z,2.45
2023-02-12T11:09:41.411Z,2.42
2023-02-12T11:12:56.396Z,2.63
2023-02-12T11:15:53.471Z,2.65
2023-02-12T11:18:43.418Z,2.57
2023-02-12T11:21:37.420Z,2.50
2023-02-12T11:24:33.406Z,2.58
2023-02-12T11:27:21.552Z,2.65
2023-02-12T11:30:20.415Z,2.68
2023-02-12T11:32:54.599Z,2.55
2023-02-12T11:35:42.421Z,2.53
2023-02-12T11:38:29.558Z,2.59
2023-02-12T11:41:29.443Z,2.67
2023-02-12T11:44:37.431Z,2.70
2023-02-12T11:47:34.442Z,2.68
2023-02-12T11:50:46.438Z,2.65
2023-02-12T11:53:39.435Z,2.60
2023-02-12T11:56:22.418Z,2.68
2023-02-12T11:59:45.440Z,2.68
2023-02-12T12:02:48.445Z,2.66
2023-02-12T12:05:45.436Z,2.51
2023-02-12T12:08:32.540Z,2.44
2023-02-12T12:11:54.438Z,2.44
2023-02-12T12:14:58.476Z,2.50
2023-02-12T12:18:10.425Z,2.55
2023-02-12T12:20:57.433Z,2.53
2023-02-12T12:23:55.422Z,2.53
2023-02-12T12:26:37.430Z,2.53
2023-02-12T12:29:40.441Z,2.56
2023-02-12T12:32:31.438Z,2.51
2023-02-12T12:35:04.596Z,2.51
2023-02-12T12:38:40.459Z,2.55
2023-02-12T12:41:48.439Z,2.66
2023-02-12T12:44:45.489Z,2.76
2023-02-12T12:47:51.452Z,2.51
2023-02-12T12:50:38.430Z,2.57
2023-02-12T12:53:44.445Z,2.63
2023-02-12T12:56:46.481Z,2.46
2023-02-12T12:59:38.594Z,2.47
2023-02-12T13:02:51.470Z,2.57
2023-02-12T13:05:34.441Z,2.48
2023-02-12T13:08:36.460Z,2.42
2023-02-12T13:11:15.565Z,2.36
2023-02-12T13:14:29.453Z,2.27
2023-02-12T13:17:32.602Z,2.23
2023-02-12T13:20:38.475Z,2.27
2023-02-12T13:23:23.590Z,2.35
2023-02-12T13:26:15.469Z,2.21
2023-02-12T13:29:00.462Z,2.08
2023-02-12T13:32:41.415Z,1.92
2023-02-12T13:35:28.469Z,1.89
2023-02-12T13:38:27.468Z,1.86
2023-02-12T13:41:17.465Z,1.82
2023-02-12T13:44:08.467Z,1.81
2023-02-12T13:47:10.471Z,1.73
2023-02-12T13:50:07.478Z,1.69
2023-02-12T13:52:55.578Z,1.63
2023-02-12T13:55:54.903Z,1.62
2023-02-12T13:58:45.474Z,1.57
2023-02-12T14:02:06.476Z,1.48
2023-02-12T14:05:02.489Z,1.45
2023-02-12T14:07:51.563Z,1.42
2023-02-12T14:10:42.478Z,1.38
2023-02-12T14:13:21.657Z,1.33
2023-02-12T14:16:44.488Z,1.30
2023-02-12T14:19:50.492Z,1.27
2023-02-12T14:22:44.491Z,1.21
2023-02-12T14:25:31.486Z,1.17
2023-02-12T14:28:13.661Z,1.11
2023-02-12T14:31:25.621Z,1.10
2023-02-12T14:34:26.468Z,1.04
2023-02-12T14:37:19.486Z,1.04
2023-02-12T14:39:59.472Z,1.08
2023-02-12T14:42:46.489Z,1.09
2023-02-12T14:45:50.489Z,1.10
2023-02-12T14:48:59.525Z,1.10
2023-02-12T14:52:13.506Z,1.08
2023-02-12T14:55:19.550Z,1.02
2023-02-12T14:58:10.484Z,1.00
2023-02-12T15:00:46.602Z,0.97
2023-02-12T15:04:08.478Z,0.89
2023-02-12T15:06:56.470Z,0.87
2023-02-12T15:10:00.518Z,0.83
2023-02-12T15:13:15.499Z,0.83
2023-02-12T15:16:10.526Z,0.80
2023-02-12T15:19:18.621Z,0.75
2023-02-12T15:22:06.503Z,0.70
2023-02-12T15:24:39.627Z,0.70
2023-02-12T15:27:28.516Z,0.71
2023-02-12T15:30:10.441Z,0.68
2023-02-12T15:33:05.499Z,0.67
2023-02-12T15:35:59.668Z,0.63
2023-02-12T15:38:48.551Z,0.62
2023-02-12T15:41:46.697Z,0.58
2023-02-12T15:44:43.527Z,0.57
2023-02-12T15:47:26.220Z,0.52
2023-02-12T15:50:12.514Z,0.48
2023-02-12T15:52:49.682Z,0.47
2023-02-12T15:55:42.527Z,0.46
2023-02-12T15:58:33.517Z,0.40
2023-02-12T16:01:57.592Z,0.41
2023-02-12T16:04:51.527Z,0.34
2023-02-12T16:07:49.551Z,0.32
2023-02-12T16:10:36.518Z,0.28
2023-02-12T16:13:10.705Z,0.23
2023-02-12T16:16:19.542Z,0.18
2023-02-12T16:18:59.501Z,0.13
2023-02-12T16:21:53.534Z,0.09
2023-02-12T16:24:51.520Z,0.05
2023-02-12T16:27:36.734Z,0.01
2023-02-12T16:30:45.527Z,-0.04
2023-02-12T16:34:05.975Z,-0.10
2023-02-12T16:37:00.527Z,-0.15
2023-02-12T16:40:09.547Z,-0.20
2023-02-12T16:43:10.616Z,-0.28
2023-02-12T16:45:59.036Z,-0.29
2023-02-12T16:48:34.412Z,-0.34
2023-02-12T16:51:35.596Z,-0.36
2023-02-12T16:54:18.530Z,-0.37
2023-02-12T16:57:13.522Z,-0.40
2023-02-12T17:00:00.625Z,-0.44
2023-02-12T17:02:36.186Z,-0.49
2023-02-12T17:05:24.824Z,-0.54
2023-02-12T17:07:57.685Z,-0.56
2023-02-12T17:10:44.605Z,-0.58
2023-02-12T17:13:19.122Z,-0.63
2023-02-12T17:16:11.251Z,-0.66
2023-02-12T17:18:46.778Z,-0.69
2023-02-12T17:21:44.620Z,-0.72
2023-02-12T17:24:33.556Z,-0.75
2023-02-12T17:27:27.633Z,-0.77
2023-02-12T17:30:22.546Z,-0.86
2023-02-12T17:33:09.559Z,-0.87
2023-02-12T17:35:51.550Z,-0.91
2023-02-12T17:38:45.582Z,-0.93
2023-02-12T17:41:32.684Z,-0.96
2023-02-12T17:44:13.556Z,-0.99
2023-02-12T17:47:07.559Z,-1.02
2023-02-12T17:50:01.603Z,-1.04
2023-02-12T17:52:55.556Z,-1.07
2023-02-12T17:55:46.555Z,-1.11
2023-02-12T17:58:19.745Z,-1.14
2023-02-12T18:01:11.571Z,-1.19
2023-02-12T18:03:45.692Z,-1.20
2023-02-12T18:06:35.571Z,-1.21
2023-02-12T18:09:15.555Z,-1.27
2023-02-12T18:12:02.624Z,-1.35
2023-02-12T18:14:42.625Z,-1.40
2023-02-12T18:17:29.563Z,-1.42
2023-02-12T18:20:03.682Z,-1.45
2023-02-12T18:22:51.562Z,-1.50
2023-02-12T18:25:31.569Z,-1.52
2023-02-12T18:28:18.658Z,-1.56
2023-02-12T18:30:59.069Z,-1.61
2023-02-12T18:33:45.618Z,-1.64
2023-02-12T18:36:21.779Z,-1.70
2023-02-12T18:39:08.800Z,-1.74
2023-02-12T18:41:41.682Z,-1.77
2023-02-12T18:44:29.576Z,-1.82
2023-02-12T18:47:03.110Z,-1.83
2023-02-12T18:49:56.617Z,-1.87
2023-02-12T18:52:50.706Z,-1.91
2023-02-12T18:55:37.565Z,-1.93
2023-02-12T18:58:10.707Z,-1.96
2023-02-12T19:00:57.961Z,-1.99
2023-02-12T19:03:31.708Z,-2.03
2023-02-12T19:06:19.593Z,-2.06
2023-02-12T19:08:52.738Z,-2.08
2023-02-12T19:11:40.615Z,-2.12
2023-02-12T19:14:20.612Z,-2.16
2023-02-12T19:17:14.617Z,-2.20
2023-02-12T19:20:08.625Z,-2.23
2023-02-12T19:22:55.574Z,-2.28
2023-02-12T19:25:28.756Z,-2.31
2023-02-12T19:28:19.701Z,-2.35
2023-02-12T19:30:52.866Z,-2.39
2023-02-12T19:33:39.560Z,-2.45
2023-02-12T19:36:21.587Z,-2.45
2023-02-12T19:39:12.616Z,-2.47
2023-02-12T19:41:47.004Z,-2.52
2023-02-12T19:44:33.575Z,-2.54
2023-02-12T19:47:06.884Z,-2.56
2023-02-12T19:49:53.649Z,-2.59
2023-02-12T19:52:33.571Z,-2.63
2023-02-12T19:55:27.660Z,-2.68
2023-02-12T19:58:15.587Z,-2.71
2023-02-12T20:00:49.742Z,-2.74
2023-02-12T20:03:36.623Z,-2.77
2023-02-12T20:06:16.757Z,-2.78
2023-02-12T20:09:04.629Z,-2.84
2023-02-12T20:11:40.917Z,-2.86
2023-02-12T20:14:29.653Z,-2.90
2023-02-12T20:17:06.080Z,-2.94
2023-02-12T20:19:52.623Z,-2.99
2023-02-12T20:22:25.877Z,-3.03
2023-02-12T20:25:13.603Z,-3.06
2023-02-12T20:27:53.642Z,-3.06
2023-02-12T20:30:47.603Z,-3.11
2023-02-12T20:33:34.630Z,-3.13
2023-02-12T20:36:08.067Z,-3.13
2023-02-12T20:38:58.719Z,-3.17
2023-02-12T20:41:43.653Z,-3.18
2023-02-12T20:44:30.626Z,-3.19
2023-02-12T20:47:03.812Z,-3.21
2023-02-12T20:49:50.624Z,-3.25
2023-02-12T20:52:23.736Z,-3.25
2023-02-12T20:55:10.631Z,-3.28
2023-02-12T20:57:43.738Z,-3.29
2023-02-12T21:00:30.619Z,-3.32
2023-02-12T21:03:04.678Z,-3.37
2023-02-12T21:05:51.637Z,-3.41
2023-02-12T21:08:24.757Z,-3.40
2023-02-12T21:11:14.679Z,-3.39
2023-02-12T21:14:02.525Z,-3.39
2023-02-12T21:16:57.684Z,-3.39
2023-02-12T21:19:44.620Z,-3.40
2023-02-12T21:22:24.616Z,-3.41
2023-02-12T21:25:11.687Z,-3.42
2023-02-12T21:27:51.636Z,-3.45
2023-02-12T21:30:40.619Z,-3.49
2023-02-12T21:33:13.734Z,-3.50
2023-02-12T21:36:00.618Z,-3.50
2023-02-12T21:38:34.710Z,-3.52
2023-02-12T21:41:29.635Z,-3.54
2023-02-12T21:44:05.850Z,-3.54
2023-02-12T21:46:52.661Z,-3.59
2023-02-12T21:49:33.651Z,-3.60
2023-02-12T21:52:27.636Z,-3.62
2023-02-12T21:55:14.614Z,-3.65
2023-02-12T21:57:47.751Z,-3.68
2023-02-12T22:00:34.656Z,-3.68
2023-02-12T22:03:07.733Z,-3.70
2023-02-12T22:05:54.624Z,-3.73
2023-02-12T22:08:27.732Z,-3.72
2023-02-12T22:11:17.678Z,-3.73
2023-02-12T22:13:50.790Z,-3.75
2023-02-12T22:16:38.664Z,-3.79
2023-02-12T22:19:18.636Z,-3.79
2023-02-12T22:22:05.638Z,-3.78
2023-02-12T22:24:45.685Z,-3.78
2023-02-12T22:27:32.652Z,-3.82
2023-02-12T22:30:05.719Z,-3.82
2023-02-12T22:32:54.636Z,-3.85
2023-02-12T22:35:27.723Z,-3.89
2023-02-12T22:38:14.633Z,-3.91
2023-02-12T22:40:47.717Z,-3.93
2023-02-12T22:43:42.628Z,-3.95
2023-02-12T22:46:25.682Z,-3.96
2023-02-12T22:49:19.669Z,-4.02
2023-02-12T22:52:13.681Z,-4.03
2023-02-12T22:55:07.797Z,-4.06
2023-02-12T22:58:01.676Z,-4.07
2023-02-12T23:00:58.731Z,-4.08
2023-02-12T23:03:46.705Z,-4.12
2023-02-12T23:06:22.763Z,-4.14
2023-02-12T23:09:14.608Z,-4.19
2023-02-12T23:11:47.846Z,-4.22
2023-02-12T23:14:34.614Z,-4.21
2023-02-12T23:17:11.092Z,-4.24
2023-02-12T23:19:57.686Z,-4.24
2023-02-12T23:22:30.740Z,-4.25
2023-02-12T23:25:17.693Z,-4.24
2023-02-12T23:27:50.804Z,-4.26
2023-02-12T23:30:37.736Z,-4.26
2023-02-12T23:33:18.714Z,-4.27
2023-02-12T23:36:12.718Z,-4.27
2023-02-12T23:39:06.727Z,-4.27
2023-02-12T23:42:00.643Z,-4.28
2023-02-12T23:44:47.783Z,-4.26
2023-02-12T23:47:20.782Z,-4.31
2023-02-12T23:50:07.717Z,-4.35
2023-02-12T23:52:40.781Z,-4.34
2023-02-12T23:55:27.706Z,-4.29
2023-02-12T23:58:03.111Z,-4.25
